sensor_id;sensor_type;location;lat;lon;timestamp;temperature;humidity
18717;DHT22;9487;50.892;6.906;2023-12-20T00:01:28;8.20;99.90
18717;DHT22;9487;50.892;6.906;2023-12-20T00:03:55;8.20;99.90
18717;DHT22;9487;50.892;6.906;2023-12-20T00:06:24;8.20;99.90
18717;DHT22;9487;50.892;6.906;2023-12-20T00:08:51;8.30;99.90
18717;DHT22;9487;50.892;6.906;2023-12-20T00:11:20;8.30;99.90
18717;DHT22;9487;50.892;6.906;2023-12-20T00:13:48;8.30;99.90
18717;DHT22;9487;50.892;6.906;2023-12-20T00:16:16;8.30;99.90
18717;DHT22;9487;50.892;6.906;2023-12-20T00:18:44;8.30;99.90
18717;DHT22;9487;50.892;6.906;2023-12-20T00:21:13;8.30;99.90
18717;DHT22;9487;50.892;6.906;2023-12-20T00:23:41;8.30;99.90
18717;DHT22;9487;50.892;6.906;2023-12-20T00:26:08;8.40;99.90
18717;DHT22;9487;50.892;6.906;2023-12-20T00:28:35;8.30;99.90
18717;DHT22;9487;50.892;6.906;2023-12-20T00:31:02;8.30;99.90
18717;DHT22;9487;50.892;6.906;2023-12-20T00:33:30;8.30;99.90
18717;DHT22;9487;50.892;6.906;2023-12-20T00:35:57;8.30;99.90
18717;DHT22;9487;50.892;6.906;2023-12-20T00:38:24;8.30;99.90
18717;DHT22;9487;50.892;6.906;2023-12-20T00:40:53;8.20;99.90
18717;DHT22;9487;50.892;6.906;2023-12-20T00:43:20;8.20;99.90
18717;DHT22;9487;50.892;6.906;2023-12-20T00:45:47;8.10;99.90
18717;DHT22;9487;50.892;6.906;2023-12-20T00:48:14;8.10;99.90
18717;DHT22;9487;50.892;6.906;2023-12-20T00:50:41;8.10;99.90
18717;DHT22;9487;50.892;6.906;2023-12-20T00:53:10;8.10;99.90
18717;DHT22;9487;50.892;6.906;2023-12-20T00:55:37;8.10;99.90
18717;DHT22;9487;50.892;6.906;2023-12-20T00:58:06;8.00;99.90
18717;DHT22;9487;50.892;6.906;2023-12-20T01:00:33;8.00;99.90
18717;DHT22;9487;50.892;6.906;2023-12-20T01:02:59;8.00;99.90
18717;DHT22;9487;50.892;6.906;2023-12-20T01:05:26;8.00;99.90
18717;DHT22;9487;50.892;6.906;2023-12-20T01:07:54;8.00;99.90
18717;DHT22;9487;50.892;6.906;2023-12-20T01:10:21;7.90;99.90
18717;DHT22;9487;50.892;6.906;2023-12-20T01:12:48;7.90;99.90
18717;DHT22;9487;50.892;6.906;2023-12-20T01:15:16;7.90;99.90
18717;DHT22;9487;50.892;6.906;2023-12-20T01:17:43;7.90;99.90
18717;DHT22;9487;50.892;6.906;2023-12-20T01:20:10;7.90;99.90
18717;DHT22;9487;50.892;6.906;2023-12-20T01:22:37;7.90;99.90
18717;DHT22;9487;50.892;6.906;2023-12-20T01:25:05;7.90;99.90
18717;DHT22;9487;50.892;6.906;2023-12-20T01:27:32;7.90;99.90
18717;DHT22;9487;50.892;6.906;2023-12-20T01:29:59;7.90;99.90
18717;DHT22;9487;50.892;6.906;2023-12-20T01:32:27;7.80;99.90
18717;DHT22;9487;50.892;6.906;2023-12-20T01:34:54;7.90;99.90
18717;DHT22;9487;50.892;6.906;2023-12-20T01:37:20;7.80;99.90
18717;DHT22;9487;50.892;6.906;2023-12-20T01:39:49;7.90;99.90
18717;DHT22;9487;50.892;6.906;2023-12-20T01:42:16;7.80;99.90
18717;DHT22;9487;50.892;6.906;2023-12-20T01:44:42;7.90;99.90
18717;DHT22;9487;50.892;6.906;2023-12-20T01:47:09;7.90;99.90
18717;DHT22;9487;50.892;6.906;2023-12-20T01:49:37;7.80;99.90
18717;DHT22;9487;50.892;6.906;2023-12-20T01:52:05;7.80;99.90
18717;DHT22;9487;50.892;6.906;2023-12-20T01:54:32;7.80;99.90
18717;DHT22;9487;50.892;6.906;2023-12-20T01:56:58;7.70;99.90
18717;DHT22;9487;50.892;6.906;2023-12-20T01:59:24;7.70;99.90
18717;DHT22;9487;50.892;6.906;2023-12-20T02:01:51;7.60;99.90
18717;DHT22;9487;50.892;6.906;2023-12-20T02:04:18;7.60;99.90
18717;DHT22;9487;50.892;6.906;2023-12-20T02:06:46;7.50;99.90
18717;DHT22;9487;50.892;6.906;2023-12-20T02:09:13;7.40;99.90
18717;DHT22;9487;50.892;6.906;2023-12-20T02:11:41;7.50;99.90
18717;DHT22;9487;50.892;6.906;2023-12-20T02:14:07;7.50;99.90
18717;DHT22;9487;50.892;6.906;2023-12-20T02:16:34;7.40;99.90
18717;DHT22;9487;50.892;6.906;2023-12-20T02:19:01;7.30;99.90
18717;DHT22;9487;50.892;6.906;2023-12-20T02:21:35;7.10;99.90
18717;DHT22;9487;50.892;6.906;2023-12-20T02:24:02;7.10;99.90
18717;DHT22;9487;50.892;6.906;2023-12-20T02:26:29;7.10;99.90
18717;DHT22;9487;50.892;6.906;2023-12-20T02:28:56;7.10;99.90
18717;DHT22;9487;50.892;6.906;2023-12-20T02:31:23;7.00;99.90
18717;DHT22;9487;50.892;6.906;2023-12-20T02:33:50;7.00;99.90
18717;DHT22;9487;50.892;6.906;2023-12-20T02:36:17;7.20;99.90
18717;DHT22;9487;50.892;6.906;2023-12-20T02:38:45;7.10;99.90
18717;DHT22;9487;50.892;6.906;2023-12-20T02:41:12;7.10;99.90
18717;DHT22;9487;50.892;6.906;2023-12-20T02:43:41;7.10;99.90
18717;DHT22;9487;50.892;6.906;2023-12-20T02:46:08;7.10;99.90
18717;DHT22;9487;50.892;6.906;2023-12-20T02:48:34;7.00;99.90
18717;DHT22;9487;50.892;6.906;2023-12-20T02:51:01;6.90;99.90
18717;DHT22;9487;50.892;6.906;2023-12-20T02:53:28;6.80;99.90
18717;DHT22;9487;50.892;6.906;2023-12-20T02:55:56;6.90;99.90
18717;DHT22;9487;50.892;6.906;2023-12-20T02:58:23;7.00;99.90
18717;DHT22;9487;50.892;6.906;2023-12-20T03:00:51;7.00;99.90
18717;DHT22;9487;50.892;6.906;2023-12-20T03:03:17;7.00;99.90
18717;DHT22;9487;50.892;6.906;2023-12-20T03:05:45;7.10;99.90
18717;DHT22;9487;50.892;6.906;2023-12-20T03:08:12;7.10;99.90
18717;DHT22;9487;50.892;6.906;2023-12-20T03:10:39;7.10;99.90
18717;DHT22;9487;50.892;6.906;2023-12-20T03:13:07;7.10;99.90
18717;DHT22;9487;50.892;6.906;2023-12-20T03:15:34;7.00;99.90
18717;DHT22;9487;50.892;6.906;2023-12-20T03:18:01;7.10;99.90
18717;DHT22;9487;50.892;6.906;2023-12-20T03:20:27;7.00;99.90
18717;DHT22;9487;50.892;6.906;2023-12-20T03:22:56;7.00;99.90
18717;DHT22;9487;50.892;6.906;2023-12-20T03:25:23;7.00;99.90
18717;DHT22;9487;50.892;6.906;2023-12-20T03:27:50;7.00;99.90
18717;DHT22;9487;50.892;6.906;2023-12-20T03:30:18;7.00;99.90
18717;DHT22;9487;50.892;6.906;2023-12-20T03:32:45;7.10;99.90
18717;DHT22;9487;50.892;6.906;2023-12-20T03:35:11;7.00;99.90
18717;DHT22;9487;50.892;6.906;2023-12-20T03:37:38;7.10;99.90
18717;DHT22;9487;50.892;6.906;2023-12-20T03:40:06;7.10;99.90
18717;DHT22;9487;50.892;6.906;2023-12-20T03:42:33;7.10;99.90
18717;DHT22;9487;50.892;6.906;2023-12-20T03:45:00;7.10;99.90
18717;DHT22;9487;50.892;6.906;2023-12-20T03:47:28;7.10;99.90
18717;DHT22;9487;50.892;6.906;2023-12-20T03:49:55;7.20;99.90
18717;DHT22;9487;50.892;6.906;2023-12-20T03:52:21;7.20;99.90
18717;DHT22;9487;50.892;6.906;2023-12-20T03:54:48;7.20;99.90
18717;DHT22;9487;50.892;6.906;2023-12-20T03:57:15;7.20;99.90
18717;DHT22;9487;50.892;6.906;2023-12-20T03:59:42;7.10;99.90
18717;DHT22;9487;50.892;6.906;2023-12-20T04:02:08;7.10;99.90
18717;DHT22;9487;50.892;6.906;2023-12-20T04:04:36;7.10;99.90
18717;DHT22;9487;50.892;6.906;2023-12-20T04:07:03;7.10;99.90
18717;DHT22;9487;50.892;6.906;2023-12-20T04:09:30;7.10;99.90
18717;DHT22;9487;50.892;6.906;2023-12-20T04:11:57;7.10;99.90
18717;DHT22;9487;50.892;6.906;2023-12-20T04:14:24;7.10;99.90
18717;DHT22;9487;50.892;6.906;2023-12-20T04:16:51;7.10;99.90
18717;DHT22;9487;50.892;6.906;2023-12-20T04:19:18;7.10;99.90
18717;DHT22;9487;50.892;6.906;2023-12-20T04:21:46;7.10;99.90
18717;DHT22;9487;50.892;6.906;2023-12-20T04:24:12;7.10;99.90
18717;DHT22;9487;50.892;6.906;2023-12-20T04:26:39;7.10;99.90
18717;DHT22;9487;50.892;6.906;2023-12-20T04:29:06;7.10;99.90
18717;DHT22;9487;50.892;6.906;2023-12-20T04:31:33;7.10;99.90
18717;DHT22;9487;50.892;6.906;2023-12-20T04:33:59;7.10;99.90
18717;DHT22;9487;50.892;6.906;2023-12-20T04:36:26;7.10;99.90
18717;DHT22;9487;50.892;6.906;2023-12-20T04:38:56;7.10;99.90
18717;DHT22;9487;50.892;6.906;2023-12-20T04:41:25;7.10;99.90
18717;DHT22;9487;50.892;6.906;2023-12-20T04:43:53;7.00;99.90
18717;DHT22;9487;50.892;6.906;2023-12-20T04:46:19;7.00;99.90
18717;DHT22;9487;50.892;6.906;2023-12-20T04:48:46;6.90;99.90
18717;DHT22;9487;50.892;6.906;2023-12-20T04:51:13;7.00;99.90
18717;DHT22;9487;50.892;6.906;2023-12-20T04:53:40;7.00;99.90
18717;DHT22;9487;50.892;6.906;2023-12-20T04:56:08;7.00;99.90
18717;DHT22;9487;50.892;6.906;2023-12-20T04:58:35;7.00;99.90
18717;DHT22;9487;50.892;6.906;2023-12-20T05:01:03;7.00;99.90
18717;DHT22;9487;50.892;6.906;2023-12-20T05:03:30;7.00;99.90
18717;DHT22;9487;50.892;6.906;2023-12-20T05:05:57;7.00;99.90
18717;DHT22;9487;50.892;6.906;2023-12-20T05:08:23;7.00;99.90
18717;DHT22;9487;50.892;6.906;2023-12-20T05:10:50;6.90;99.90
18717;DHT22;9487;50.892;6.906;2023-12-20T05:13:18;6.90;99.90
18717;DHT22;9487;50.892;6.906;2023-12-20T05:15:45;6.90;99.90
18717;DHT22;9487;50.892;6.906;2023-12-20T05:18:12;6.90;99.90
18717;DHT22;9487;50.892;6.906;2023-12-20T05:20:39;6.80;99.90
18717;DHT22;9487;50.892;6.906;2023-12-20T05:23:07;6.80;99.90
18717;DHT22;9487;50.892;6.906;2023-12-20T05:25:34;6.80;99.90
18717;DHT22;9487;50.892;6.906;2023-12-20T05:28:00;6.80;99.90
18717;DHT22;9487;50.892;6.906;2023-12-20T05:30:29;6.80;99.90
18717;DHT22;9487;50.892;6.906;2023-12-20T05:32:55;6.90;99.90
18717;DHT22;9487;50.892;6.906;2023-12-20T05:35:22;6.70;99.90
18717;DHT22;9487;50.892;6.906;2023-12-20T05:37:49;6.80;99.90
18717;DHT22;9487;50.892;6.906;2023-12-20T05:40:16;6.80;99.90
18717;DHT22;9487;50.892;6.906;2023-12-20T05:42:43;6.70;99.90
18717;DHT22;9487;50.892;6.906;2023-12-20T05:45:10;6.80;99.90
18717;DHT22;9487;50.892;6.906;2023-12-20T05:47:38;6.80;99.90
18717;DHT22;9487;50.892;6.906;2023-12-20T05:50:06;6.80;99.90
18717;DHT22;9487;50.892;6.906;2023-12-20T05:52:33;6.90;99.90
18717;DHT22;9487;50.892;6.906;2023-12-20T05:55:00;6.80;99.90
18717;DHT22;9487;50.892;6.906;2023-12-20T05:57:27;6.80;99.90
18717;DHT22;9487;50.892;6.906;2023-12-20T05:59:55;6.80;99.90
18717;DHT22;9487;50.892;6.906;2023-12-20T06:02:24;6.80;99.90
18717;DHT22;9487;50.892;6.906;2023-12-20T06:04:52;6.80;99.90
18717;DHT22;9487;50.892;6.906;2023-12-20T06:07:19;6.80;99.90
18717;DHT22;9487;50.892;6.906;2023-12-20T06:09:46;6.90;99.90
18717;DHT22;9487;50.892;6.906;2023-12-20T06:12:13;6.70;99.90
18717;DHT22;9487;50.892;6.906;2023-12-20T06:14:39;6.80;99.90
18717;DHT22;9487;50.892;6.906;2023-12-20T06:17:06;6.80;99.90
18717;DHT22;9487;50.892;6.906;2023-12-20T06:19:33;6.80;99.90
18717;DHT22;9487;50.892;6.906;2023-12-20T06:22:01;6.80;99.90
18717;DHT22;9487;50.892;6.906;2023-12-20T06:24:28;6.80;99.90
18717;DHT22;9487;50.892;6.906;2023-12-20T06:26:59;6.80;99.90
18717;DHT22;9487;50.892;6.906;2023-12-20T06:29:26;6.90;99.90
18717;DHT22;9487;50.892;6.906;2023-12-20T06:31:53;6.90;99.90
18717;DHT22;9487;50.892;6.906;2023-12-20T06:34:19;6.90;99.90
18717;DHT22;9487;50.892;6.906;2023-12-20T06:36:46;6.90;99.90
18717;DHT22;9487;50.892;6.906;2023-12-20T06:39:14;6.90;99.90
18717;DHT22;9487;50.892;6.906;2023-12-20T06:41:41;6.90;99.90
18717;DHT22;9487;50.892;6.906;2023-12-20T06:44:08;6.90;99.90
18717;DHT22;9487;50.892;6.906;2023-12-20T06:46:35;7.00;99.90
18717;DHT22;9487;50.892;6.906;2023-12-20T06:49:02;7.00;99.90
18717;DHT22;9487;50.892;6.906;2023-12-20T06:51:29;7.00;99.90
18717;DHT22;9487;50.892;6.906;2023-12-20T06:53:56;7.00;99.90
18717;DHT22;9487;50.892;6.906;2023-12-20T06:56:24;7.00;99.90
18717;DHT22;9487;50.892;6.906;2023-12-20T06:58:51;7.00;99.90
18717;DHT22;9487;50.892;6.906;2023-12-20T07:01:18;7.00;99.90
18717;DHT22;9487;50.892;6.906;2023-12-20T07:03:45;7.00;99.90
18717;DHT22;9487;50.892;6.906;2023-12-20T07:06:11;7.00;99.90
18717;DHT22;9487;50.892;6.906;2023-12-20T07:08:39;7.10;99.90
18717;DHT22;9487;50.892;6.906;2023-12-20T07:11:06;7.10;99.90
18717;DHT22;9487;50.892;6.906;2023-12-20T07:13:35;7.10;99.90
18717;DHT22;9487;50.892;6.906;2023-12-20T07:16:02;7.10;99.90
18717;DHT22;9487;50.892;6.906;2023-12-20T07:18:29;7.10;99.90
18717;DHT22;9487;50.892;6.906;2023-12-20T07:20:56;7.20;99.90
18717;DHT22;9487;50.892;6.906;2023-12-20T07:23:22;7.70;99.90
18717;DHT22;9487;50.892;6.906;2023-12-20T07:25:51;7.80;99.90
18717;DHT22;9487;50.892;6.906;2023-12-20T07:28:18;8.00;99.90
18717;DHT22;9487;50.892;6.906;2023-12-20T07:30:46;8.20;99.90
18717;DHT22;9487;50.892;6.906;2023-12-20T07:33:12;8.20;99.90
18717;DHT22;9487;50.892;6.906;2023-12-20T07:35:39;8.00;99.90
18717;DHT22;9487;50.892;6.906;2023-12-20T07:38:06;7.70;99.90
18717;DHT22;9487;50.892;6.906;2023-12-20T07:40:33;7.50;1.00
18717;DHT22;9487;50.892;6.906;2023-12-20T07:43:00;7.40;99.90
18717;DHT22;9487;50.892;6.906;2023-12-20T07:45:26;7.30;99.90
18717;DHT22;9487;50.892;6.906;2023-12-20T07:47:54;7.30;99.90
18717;DHT22;9487;50.892;6.906;2023-12-20T07:50:21;7.30;99.90
18717;DHT22;9487;50.892;6.906;2023-12-20T07:52:48;7.30;99.90
18717;DHT22;9487;50.892;6.906;2023-12-20T07:55:15;7.30;1.00
18717;DHT22;9487;50.892;6.906;2023-12-20T07:57:42;7.30;1.00
18717;DHT22;9487;50.892;6.906;2023-12-20T08:00:10;7.30;1.00
18717;DHT22;9487;50.892;6.906;2023-12-20T08:02:36;7.30;1.00
18717;DHT22;9487;50.892;6.906;2023-12-20T08:05:05;7.30;1.00
18717;DHT22;9487;50.892;6.906;2023-12-20T08:07:32;7.20;1.00
18717;DHT22;9487;50.892;6.906;2023-12-20T08:09:59;7.20;1.00
18717;DHT22;9487;50.892;6.906;2023-12-20T08:12:26;7.20;1.00
18717;DHT22;9487;50.892;6.906;2023-12-20T08:14:53;7.30;1.00
18717;DHT22;9487;50.892;6.906;2023-12-20T08:17:20;7.20;1.00
18717;DHT22;9487;50.892;6.906;2023-12-20T08:19:48;7.20;1.00
18717;DHT22;9487;50.892;6.906;2023-12-20T08:22:16;7.20;1.00
18717;DHT22;9487;50.892;6.906;2023-12-20T08:24:43;7.20;1.00
18717;DHT22;9487;50.892;6.906;2023-12-20T08:27:10;7.10;1.00
18717;DHT22;9487;50.892;6.906;2023-12-20T08:29:37;7.10;1.00
18717;DHT22;9487;50.892;6.906;2023-12-20T08:32:04;7.10;1.00
18717;DHT22;9487;50.892;6.906;2023-12-20T08:34:31;7.20;1.00
18717;DHT22;9487;50.892;6.906;2023-12-20T08:36:58;7.10;1.00
18717;DHT22;9487;50.892;6.906;2023-12-20T08:39:26;7.20;99.90
18717;DHT22;9487;50.892;6.906;2023-12-20T08:41:53;7.20;99.90
18717;DHT22;9487;50.892;6.906;2023-12-20T08:44:20;7.20;99.90
18717;DHT22;9487;50.892;6.906;2023-12-20T08:46:47;7.20;1.00
18717;DHT22;9487;50.892;6.906;2023-12-20T08:49:14;7.20;1.00
18717;DHT22;9487;50.892;6.906;2023-12-20T08:51:41;7.20;1.00
18717;DHT22;9487;50.892;6.906;2023-12-20T08:54:11;7.30;99.90
18717;DHT22;9487;50.892;6.906;2023-12-20T08:56:40;7.30;99.90
18717;DHT22;9487;50.892;6.906;2023-12-20T08:59:08;7.30;99.90
18717;DHT22;9487;50.892;6.906;2023-12-20T09:01:35;7.30;99.90
18717;DHT22;9487;50.892;6.906;2023-12-20T09:04:02;7.30;99.90
18717;DHT22;9487;50.892;6.906;2023-12-20T09:06:29;7.30;99.90
18717;DHT22;9487;50.892;6.906;2023-12-20T09:08:56;7.40;99.90
18717;DHT22;9487;50.892;6.906;2023-12-20T09:11:23;7.40;99.90
18717;DHT22;9487;50.892;6.906;2023-12-20T09:13:53;7.40;99.90
18717;DHT22;9487;50.892;6.906;2023-12-20T09:16:19;7.40;1.00
18717;DHT22;9487;50.892;6.906;2023-12-20T09:18:46;7.40;99.90
18717;DHT22;9487;50.892;6.906;2023-12-20T09:21:13;7.40;1.00
18717;DHT22;9487;50.892;6.906;2023-12-20T09:23:40;7.40;1.00
18717;DHT22;9487;50.892;6.906;2023-12-20T09:26:07;7.40;1.00
18717;DHT22;9487;50.892;6.906;2023-12-20T09:28:34;7.50;99.90
18717;DHT22;9487;50.892;6.906;2023-12-20T09:31:04;7.50;1.00
18717;DHT22;9487;50.892;6.906;2023-12-20T09:33:32;7.50;99.90
18717;DHT22;9487;50.892;6.906;2023-12-20T09:36:01;7.50;99.90
18717;DHT22;9487;50.892;6.906;2023-12-20T09:38:28;7.50;1.00
18717;DHT22;9487;50.892;6.906;2023-12-20T09:40:55;7.50;99.90
18717;DHT22;9487;50.892;6.906;2023-12-20T09:43:24;7.50;99.90
18717;DHT22;9487;50.892;6.906;2023-12-20T09:45:53;7.60;99.90
18717;DHT22;9487;50.892;6.906;2023-12-20T09:48:22;7.50;99.90
18717;DHT22;9487;50.892;6.906;2023-12-20T09:50:49;7.50;99.90
18717;DHT22;9487;50.892;6.906;2023-12-20T09:53:16;7.50;1.00
18717;DHT22;9487;50.892;6.906;2023-12-20T09:55:45;7.50;99.90
18717;DHT22;9487;50.892;6.906;2023-12-20T09:58:12;7.50;1.00
18717;DHT22;9487;50.892;6.906;2023-12-20T10:00:39;7.60;1.00
18717;DHT22;9487;50.892;6.906;2023-12-20T10:03:07;7.60;1.00
18717;DHT22;9487;50.892;6.906;2023-12-20T10:05:36;7.60;1.00
18717;DHT22;9487;50.892;6.906;2023-12-20T10:08:04;7.70;99.90
18717;DHT22;9487;50.892;6.906;2023-12-20T10:10:31;7.70;99.90
18717;DHT22;9487;50.892;6.906;2023-12-20T10:13:02;7.60;99.90
18717;DHT22;9487;50.892;6.906;2023-12-20T10:15:29;7.70;99.90
18717;DHT22;9487;50.892;6.906;2023-12-20T10:17:56;7.70;99.90
18717;DHT22;9487;50.892;6.906;2023-12-20T10:20:23;7.70;99.90
18717;DHT22;9487;50.892;6.906;2023-12-20T10:22:52;7.70;99.90
18717;DHT22;9487;50.892;6.906;2023-12-20T10:25:20;7.70;99.90
18717;DHT22;9487;50.892;6.906;2023-12-20T10:27:46;7.70;1.00
18717;DHT22;9487;50.892;6.906;2023-12-20T10:30:14;7.80;99.90
18717;DHT22;9487;50.892;6.906;2023-12-20T10:32:41;7.80;1.00
18717;DHT22;9487;50.892;6.906;2023-12-20T10:35:08;7.80;1.00
18717;DHT22;9487;50.892;6.906;2023-12-20T10:37:36;7.80;1.00
18717;DHT22;9487;50.892;6.906;2023-12-20T10:40:05;7.80;1.00
18717;DHT22;9487;50.892;6.906;2023-12-20T10:42:33;7.80;1.00
18717;DHT22;9487;50.892;6.906;2023-12-20T10:45:01;7.80;1.00
18717;DHT22;9487;50.892;6.906;2023-12-20T10:47:30;7.80;1.00
18717;DHT22;9487;50.892;6.906;2023-12-20T10:49:59;7.80;1.00
18717;DHT22;9487;50.892;6.906;2023-12-20T10:52:28;7.80;1.00
18717;DHT22;9487;50.892;6.906;2023-12-20T10:54:55;7.70;1.00
18717;DHT22;9487;50.892;6.906;2023-12-20T10:57:27;7.80;1.00
18717;DHT22;9487;50.892;6.906;2023-12-20T10:59:56;7.80;1.00
18717;DHT22;9487;50.892;6.906;2023-12-20T11:02:26;7.90;1.00
18717;DHT22;9487;50.892;6.906;2023-12-20T11:04:59;7.90;1.00
18717;DHT22;9487;50.892;6.906;2023-12-20T11:07:33;7.90;1.00
18717;DHT22;9487;50.892;6.906;2023-12-20T11:10:03;7.80;99.90
18717;DHT22;9487;50.892;6.906;2023-12-20T11:12:44;7.90;1.00
18717;DHT22;9487;50.892;6.906;2023-12-20T11:15:13;7.90;1.00
18717;DHT22;9487;50.892;6.906;2023-12-20T11:17:44;8.00;1.00
18717;DHT22;9487;50.892;6.906;2023-12-20T11:20:11;8.00;1.00
18717;DHT22;9487;50.892;6.906;2023-12-20T11:22:40;8.00;1.00
18717;DHT22;9487;50.892;6.906;2023-12-20T11:25:18;8.00;1.00
18717;DHT22;9487;50.892;6.906;2023-12-20T11:28:06;8.00;1.00
18717;DHT22;9487;50.892;6.906;2023-12-20T11:30:41;8.00;1.00
18717;DHT22;9487;50.892;6.906;2023-12-20T11:33:08;8.10;99.90
18717;DHT22;9487;50.892;6.906;2023-12-20T11:35:35;8.00;99.90
18717;DHT22;9487;50.892;6.906;2023-12-20T11:38:02;8.10;99.90
18717;DHT22;9487;50.892;6.906;2023-12-20T11:40:34;8.10;99.90
18717;DHT22;9487;50.892;6.906;2023-12-20T11:43:03;8.10;99.90
18717;DHT22;9487;50.892;6.906;2023-12-20T11:45:30;8.10;99.90
18717;DHT22;9487;50.892;6.906;2023-12-20T11:47:57;8.10;43.70
18717;DHT22;9487;50.892;6.906;2023-12-20T11:50:24;8.10;99.90
18717;DHT22;9487;50.892;6.906;2023-12-20T11:52:52;8.20;99.90
18717;DHT22;9487;50.892;6.906;2023-12-20T11:55:19;8.10;99.90
18717;DHT22;9487;50.892;6.906;2023-12-20T11:57:46;8.20;99.90
18717;DHT22;9487;50.892;6.906;2023-12-20T12:00:15;8.10;99.90
18717;DHT22;9487;50.892;6.906;2023-12-20T12:02:42;8.20;1.00
18717;DHT22;9487;50.892;6.906;2023-12-20T12:05:09;8.20;99.90
18717;DHT22;9487;50.892;6.906;2023-12-20T12:07:36;8.20;99.90
18717;DHT22;9487;50.892;6.906;2023-12-20T12:10:03;8.10;99.90
18717;DHT22;9487;50.892;6.906;2023-12-20T12:12:30;8.10;99.90
18717;DHT22;9487;50.892;6.906;2023-12-20T12:14:58;8.20;99.90
18717;DHT22;9487;50.892;6.906;2023-12-20T12:17:26;8.10;99.90
18717;DHT22;9487;50.892;6.906;2023-12-20T12:20:05;8.10;1.00
18717;DHT22;9487;50.892;6.906;2023-12-20T12:22:32;8.10;1.00
18717;DHT22;9487;50.892;6.906;2023-12-20T12:25:08;8.10;99.90
18717;DHT22;9487;50.892;6.906;2023-12-20T12:27:35;8.10;99.90
18717;DHT22;9487;50.892;6.906;2023-12-20T12:30:05;8.10;1.00
18717;DHT22;9487;50.892;6.906;2023-12-20T12:32:34;8.10;1.00
18717;DHT22;9487;50.892;6.906;2023-12-20T12:35:03;8.10;1.00
18717;DHT22;9487;50.892;6.906;2023-12-20T12:37:33;8.10;1.00
18717;DHT22;9487;50.892;6.906;2023-12-20T12:40:00;8.10;1.00
18717;DHT22;9487;50.892;6.906;2023-12-20T12:42:27;8.10;1.00
18717;DHT22;9487;50.892;6.906;2023-12-20T12:44:54;8.20;1.00
18717;DHT22;9487;50.892;6.906;2023-12-20T12:47:22;8.70;1.00
18717;DHT22;9487;50.892;6.906;2023-12-20T12:49:51;8.80;1.00
18717;DHT22;9487;50.892;6.906;2023-12-20T12:52:18;9.10;1.00
18717;DHT22;9487;50.892;6.906;2023-12-20T12:54:45;9.10;1.00
18717;DHT22;9487;50.892;6.906;2023-12-20T12:57:13;9.00;99.90
18717;DHT22;9487;50.892;6.906;2023-12-20T12:59:40;9.00;99.90
18717;DHT22;9487;50.892;6.906;2023-12-20T13:02:07;8.80;99.90
18717;DHT22;9487;50.892;6.906;2023-12-20T13:04:34;8.60;1.00
18717;DHT22;9487;50.892;6.906;2023-12-20T13:07:03;8.40;99.90
18717;DHT22;9487;50.892;6.906;2023-12-20T13:09:30;8.30;1.00
18717;DHT22;9487;50.892;6.906;2023-12-20T13:11:57;8.20;1.00
18717;DHT22;9487;50.892;6.906;2023-12-20T13:14:24;8.20;1.00
18717;DHT22;9487;50.892;6.906;2023-12-20T13:16:51;8.10;99.90
18717;DHT22;9487;50.892;6.906;2023-12-20T13:19:18;8.10;1.00
18717;DHT22;9487;50.892;6.906;2023-12-20T13:21:44;8.00;1.00
18717;DHT22;9487;50.892;6.906;2023-12-20T13:24:12;8.00;1.00
18717;DHT22;9487;50.892;6.906;2023-12-20T13:26:39;8.00;1.00
18717;DHT22;9487;50.892;6.906;2023-12-20T13:29:06;8.00;1.00
18717;DHT22;9487;50.892;6.906;2023-12-20T13:31:33;7.90;99.90
18717;DHT22;9487;50.892;6.906;2023-12-20T13:34:02;7.80;99.90
18717;DHT22;9487;50.892;6.906;2023-12-20T13:36:29;7.80;1.00
18717;DHT22;9487;50.892;6.906;2023-12-20T13:38:55;7.90;1.00
18717;DHT22;9487;50.892;6.906;2023-12-20T13:41:24;7.90;1.00
18717;DHT22;9487;50.892;6.906;2023-12-20T13:43:50;7.90;1.00
18717;DHT22;9487;50.892;6.906;2023-12-20T13:46:18;7.90;1.00
18717;DHT22;9487;50.892;6.906;2023-12-20T13:48:45;7.90;1.00
18717;DHT22;9487;50.892;6.906;2023-12-20T13:51:12;7.90;99.90
18717;DHT22;9487;50.892;6.906;2023-12-20T13:53:38;7.90;99.90
18717;DHT22;9487;50.892;6.906;2023-12-20T13:56:06;7.90;99.90
18717;DHT22;9487;50.892;6.906;2023-12-20T13:58:34;7.90;99.90
18717;DHT22;9487;50.892;6.906;2023-12-20T14:01:01;7.90;42.60
18717;DHT22;9487;50.892;6.906;2023-12-20T14:03:28;8.00;28.70
18717;DHT22;9487;50.892;6.906;2023-12-20T14:05:56;8.00;1.00
18717;DHT22;9487;50.892;6.906;2023-12-20T14:08:23;8.00;1.00
18717;DHT22;9487;50.892;6.906;2023-12-20T14:10:50;8.00;1.00
18717;DHT22;9487;50.892;6.906;2023-12-20T14:13:17;8.00;1.00
18717;DHT22;9487;50.892;6.906;2023-12-20T14:15:45;8.10;1.00
18717;DHT22;9487;50.892;6.906;2023-12-20T14:18:13;8.10;1.00
18717;DHT22;9487;50.892;6.906;2023-12-20T14:20:41;8.00;1.00
18717;DHT22;9487;50.892;6.906;2023-12-20T14:23:08;8.00;1.00
18717;DHT22;9487;50.892;6.906;2023-12-20T14:25:36;8.10;1.00
18717;DHT22;9487;50.892;6.906;2023-12-20T14:28:03;8.10;1.00
18717;DHT22;9487;50.892;6.906;2023-12-20T14:30:30;8.10;1.00
18717;DHT22;9487;50.892;6.906;2023-12-20T14:32:59;8.10;99.90
18717;DHT22;9487;50.892;6.906;2023-12-20T14:35:26;8.20;96.30
18717;DHT22;9487;50.892;6.906;2023-12-20T14:37:52;8.20;59.90
18717;DHT22;9487;50.892;6.906;2023-12-20T14:40:19;8.20;1.00
18717;DHT22;9487;50.892;6.906;2023-12-20T14:42:46;8.20;99.90
18717;DHT22;9487;50.892;6.906;2023-12-20T14:45:13;8.20;99.90
18717;DHT22;9487;50.892;6.906;2023-12-20T14:47:41;8.20;52.40
18717;DHT22;9487;50.892;6.906;2023-12-20T14:50:10;8.30;82.00
18717;DHT22;9487;50.892;6.906;2023-12-20T14:52:43;8.30;99.90
18717;DHT22;9487;50.892;6.906;2023-12-20T14:55:10;8.30;99.90
18717;DHT22;9487;50.892;6.906;2023-12-20T14:57:37;8.30;99.90
18717;DHT22;9487;50.892;6.906;2023-12-20T15:00:05;8.30;48.10
18717;DHT22;9487;50.892;6.906;2023-12-20T15:02:32;8.30;1.00
18717;DHT22;9487;50.892;6.906;2023-12-20T15:04:59;8.30;40.50
18717;DHT22;9487;50.892;6.906;2023-12-20T15:07:28;8.40;55.90
18717;DHT22;9487;50.892;6.906;2023-12-20T15:09:55;8.40;1.00
18717;DHT22;9487;50.892;6.906;2023-12-20T15:12:22;8.40;6.40
18717;DHT22;9487;50.892;6.906;2023-12-20T15:14:49;8.40;1.00
18717;DHT22;9487;50.892;6.906;2023-12-20T15:17:16;8.40;17.20
18717;DHT22;9487;50.892;6.906;2023-12-20T15:19:43;8.40;99.90
18717;DHT22;9487;50.892;6.906;2023-12-20T15:22:10;8.40;1.00
18717;DHT22;9487;50.892;6.906;2023-12-20T15:24:38;8.40;1.00
18717;DHT22;9487;50.892;6.906;2023-12-20T15:27:06;8.40;1.00
18717;DHT22;9487;50.892;6.906;2023-12-20T15:29:33;8.40;1.00
18717;DHT22;9487;50.892;6.906;2023-12-20T15:32:00;8.40;1.00
18717;DHT22;9487;50.892;6.906;2023-12-20T15:34:28;8.40;99.90
18717;DHT22;9487;50.892;6.906;2023-12-20T15:36:55;8.40;99.90
18717;DHT22;9487;50.892;6.906;2023-12-20T15:39:22;8.40;99.90
18717;DHT22;9487;50.892;6.906;2023-12-20T15:41:51;8.30;99.90
18717;DHT22;9487;50.892;6.906;2023-12-20T15:44:18;8.30;99.90
18717;DHT22;9487;50.892;6.906;2023-12-20T15:46:45;8.30;1.00
18717;DHT22;9487;50.892;6.906;2023-12-20T15:49:12;8.30;99.90
18717;DHT22;9487;50.892;6.906;2023-12-20T15:51:41;8.30;1.00
18717;DHT22;9487;50.892;6.906;2023-12-20T15:54:08;8.30;99.90
18717;DHT22;9487;50.892;6.906;2023-12-20T15:56:35;8.30;99.90
18717;DHT22;9487;50.892;6.906;2023-12-20T15:59:03;8.30;99.90
18717;DHT22;9487;50.892;6.906;2023-12-20T16:01:30;8.30;99.90
18717;DHT22;9487;50.892;6.906;2023-12-20T16:03:57;8.30;99.90
18717;DHT22;9487;50.892;6.906;2023-12-20T16:06:24;8.30;99.90
18717;DHT22;9487;50.892;6.906;2023-12-20T16:08:51;8.30;99.90